createdAt,value
2023-03-29T00:02:09.365Z,1.48
2023-03-29T00:04:36.393Z,1.40
2023-03-29T00:07:04.880Z,2.40
2023-03-29T00:09:33.302Z,1.52
2023-03-29T00:12:01.554Z,1.55
2023-03-29T00:14:30.939Z,1.50
2023-03-29T00:16:58.817Z,1.23
2023-03-29T00:19:26.165Z,1.77
2023-03-29T00:21:52.968Z,1.50
2023-03-29T00:24:21.361Z,1.60
2023-03-29T00:26:48.628Z,1.42
2023-03-29T00:29:16.116Z,1.92
2023-03-29T00:31:45.905Z,2.13
2023-03-29T00:34:12.766Z,1.83
2023-03-29T00:36:40.291Z,1.50
2023-03-29T00:39:07.355Z,1.55
2023-03-29T00:41:34.079Z,1.50
2023-03-29T00:44:03.462Z,2.10
2023-03-29T00:46:31.905Z,1.58
2023-03-29T00:49:09.655Z,1.67
2023-03-29T00:51:39.872Z,1.42
2023-03-29T00:54:14.768Z,1.27
2023-03-29T00:56:44.936Z,1.40
2023-03-29T00:59:18.901Z,1.70
2023-03-29T01:01:55.198Z,1.35
2023-03-29T01:05:00.860Z,1.60
2023-03-29T01:07:35.291Z,1.50
2023-03-29T01:10:10.922Z,1.27
2023-03-29T01:12:44.075Z,1.50
2023-03-29T01:15:13.981Z,1.55
2023-03-29T01:17:43.581Z,1.80
2023-03-29T01:20:17.201Z,1.45
2023-03-29T01:23:16.017Z,1.20
2023-03-29T01:26:27.111Z,1.00
2023-03-29T01:29:11.705Z,1.88
2023-03-29T01:34:31.756Z,1.08
2023-03-29T01:37:07.620Z,1.20
2023-03-29T01:39:35.126Z,1.38
2023-03-29T01:42:16.684Z,1.58
2023-03-29T01:44:55.487Z,1.23
2023-03-29T01:47:53.528Z,1.65
2023-03-29T01:50:38.974Z,1.35
2023-03-29T01:53:15.338Z,1.20
2023-03-29T01:55:48.677Z,1.50
2023-03-29T01:58:17.228Z,1.73
2023-03-29T02:00:45.394Z,1.08
2023-03-29T02:03:14.906Z,1.40
2023-03-29T02:05:42.727Z,1.40
2023-03-29T02:08:12.680Z,1.45
2023-03-29T02:10:40.634Z,1.13
2023-03-29T02:13:07.570Z,1.20
2023-03-29T02:15:34.320Z,1.65
2023-03-29T02:18:01.492Z,1.02
2023-03-29T02:20:33.080Z,1.30
2023-03-29T02:23:14.399Z,1.20
2023-03-29T02:25:43.358Z,1.23
2023-03-29T02:28:10.053Z,1.65
2023-03-29T02:31:19.118Z,1.42
2023-03-29T02:33:57.135Z,1.50
2023-03-29T02:36:30.634Z,1.23
2023-03-29T02:38:59.994Z,1.42
2023-03-29T02:41:27.649Z,1.38
2023-03-29T02:43:57.042Z,1.52
2023-03-29T02:46:24.317Z,1.38
2023-03-29T02:48:53.282Z,1.23
2023-03-29T02:51:24.117Z,1.52
2023-03-29T02:54:15.537Z,1.50
2023-03-29T02:56:54.455Z,1.02
2023-03-29T02:59:22.658Z,1.65
2023-03-29T03:01:50.107Z,0.95
2023-03-29T03:04:18.484Z,1.60
2023-03-29T03:06:45.312Z,1.88
2023-03-29T03:09:12.152Z,2.03
2023-03-29T03:11:39.540Z,1.92
2023-03-29T03:14:07.574Z,1.45
2023-03-29T03:16:34.903Z,1.92
2023-03-29T03:19:01.968Z,1.42
2023-03-29T03:21:28.767Z,1.52
2023-03-29T03:23:55.884Z,1.23
2023-03-29T03:26:24.955Z,1.70
2023-03-29T03:28:51.687Z,1.50
2023-03-29T03:31:19.606Z,1.30
2023-03-29T03:33:46.577Z,1.50
2023-03-29T03:36:14.064Z,1.42
2023-03-29T03:38:41.946Z,1.50
2023-03-29T03:41:09.084Z,1.38
2023-03-29T03:43:36.327Z,1.20
2023-03-29T03:46:03.300Z,1.92
2023-03-29T03:48:30.101Z,1.50
2023-03-29T03:50:58.341Z,1.70
2023-03-29T03:53:27.311Z,1.65
2023-03-29T03:55:58.461Z,1.40
2023-03-29T03:58:25.962Z,1.92
2023-03-29T04:00:52.782Z,1.33
2023-03-29T04:03:19.991Z,1.75
2023-03-29T04:05:47.411Z,1.45
2023-03-29T04:08:14.985Z,1.80
2023-03-29T04:10:41.970Z,1.95
2023-03-29T04:13:08.772Z,1.38
2023-03-29T04:15:41.342Z,1.55
2023-03-29T04:18:08.649Z,1.63
2023-03-29T04:20:35.907Z,1.60
2023-03-29T04:23:02.709Z,1.45
2023-03-29T04:25:29.886Z,1.70
2023-03-29T04:27:56.720Z,1.80
2023-03-29T04:30:23.616Z,1.67
2023-03-29T04:32:50.736Z,2.03
2023-03-29T04:35:17.908Z,1.70
2023-03-29T04:37:44.792Z,1.85
2023-03-29T04:40:14.428Z,2.40
2023-03-29T04:42:47.174Z,1.75
2023-03-29T04:45:18.148Z,2.00
2023-03-29T04:47:45.885Z,1.50
2023-03-29T04:50:13.857Z,1.63
2023-03-29T04:52:41.463Z,1.20
2023-03-29T04:55:09.201Z,1.60
2023-03-29T04:57:35.958Z,1.52
2023-03-29T05:00:08.356Z,1.95
2023-03-29T05:02:35.009Z,1.48
2023-03-29T05:05:02.107Z,1.55
2023-03-29T05:07:29.837Z,2.20
2023-03-29T05:09:56.907Z,1.45
2023-03-29T05:12:23.702Z,1.65
2023-03-29T05:14:50.457Z,1.58
2023-03-29T05:17:17.164Z,1.20
2023-03-29T05:19:43.911Z,1.88
2023-03-29T05:22:10.682Z,1.20
2023-03-29T05:24:37.521Z,2.13
2023-03-29T05:27:04.990Z,1.75
2023-03-29T05:29:32.849Z,1.83
2023-03-29T05:31:59.887Z,1.73
2023-03-29T05:34:27.282Z,1.70
2023-03-29T05:36:53.956Z,1.55
2023-03-29T05:39:21.162Z,2.40
2023-03-29T05:41:47.926Z,1.92
2023-03-29T05:44:14.745Z,1.77
2023-03-29T05:46:41.891Z,2.13
2023-03-29T05:49:08.738Z,1.85
2023-03-29T05:51:35.498Z,2.05
2023-03-29T05:54:02.287Z,2.10
2023-03-29T05:56:29.075Z,1.83
2023-03-29T05:58:58.783Z,1.92
2023-03-29T06:01:25.902Z,1.90
2023-03-29T06:03:52.948Z,1.80
2023-03-29T06:06:21.282Z,1.73
2023-03-29T06:08:48.139Z,2.28
2023-03-29T06:11:15.780Z,1.80
2023-03-29T06:13:42.562Z,2.13
2023-03-29T06:16:10.596Z,1.77
2023-03-29T06:18:40.362Z,1.75
2023-03-29T06:21:09.388Z,1.73
2023-03-29T06:23:36.868Z,1.55
2023-03-29T06:26:04.431Z,1.42
2023-03-29T06:28:31.806Z,1.58
2023-03-29T06:31:03.420Z,1.40
2023-03-29T06:33:32.548Z,1.55
2023-03-29T06:35:59.715Z,1.48
2023-03-29T06:38:28.406Z,1.70
2023-03-29T06:41:07.212Z,1.80
2023-03-29T06:43:34.745Z,1.95
2023-03-29T06:46:02.057Z,1.83
2023-03-29T06:48:29.171Z,2.35
2023-03-29T06:50:56.667Z,1.48
2023-03-29T06:53:23.566Z,1.60
2023-03-29T06:55:52.440Z,1.67
2023-03-29T06:58:19.733Z,1.75
2023-03-29T07:00:47.424Z,1.88
2023-03-29T07:03:20.289Z,1.60
2023-03-29T07:05:47.649Z,1.77
2023-03-29T07:08:16.614Z,2.40
2023-03-29T07:10:47.331Z,1.58
2023-03-29T07:13:15.594Z,2.15
2023-03-29T07:15:43.512Z,1.80
2023-03-29T07:18:12.499Z,2.13
2023-03-29T07:20:40.514Z,1.80
2023-03-29T07:23:09.396Z,2.22
2023-03-29T07:25:36.864Z,2.03
2023-03-29T07:28:04.264Z,2.35
2023-03-29T07:30:32.641Z,2.55
2023-03-29T07:32:59.724Z,1.83
2023-03-29T07:35:27.097Z,2.33
2023-03-29T07:37:58.410Z,2.72
2023-03-29T07:40:26.111Z,2.67
2023-03-29T07:42:55.415Z,2.72
2023-03-29T07:45:26.734Z,3.08
2023-03-29T07:47:59.796Z,3.10
2023-03-29T07:50:27.609Z,3.00
2023-03-29T07:52:54.714Z,3.30
2023-03-29T07:55:22.241Z,3.53
2023-03-29T07:57:49.835Z,3.03
2023-03-29T08:00:18.979Z,2.45
2023-03-29T08:02:47.833Z,3.45
2023-03-29T08:05:18.997Z,3.33
2023-03-29T08:07:50.518Z,3.42
2023-03-29T08:10:19.254Z,3.70
2023-03-29T08:12:47.486Z,3.08
2023-03-29T08:15:14.827Z,4.18
2023-03-29T08:17:42.002Z,3.92
2023-03-29T08:20:11.360Z,3.40
2023-03-29T08:22:38.875Z,3.60
2023-03-29T08:25:07.342Z,3.45
2023-03-29T08:27:34.917Z,3.20
2023-03-29T08:30:01.884Z,3.80
2023-03-29T08:32:28.621Z,3.75
2023-03-29T08:34:55.621Z,3.75
2023-03-29T08:37:24.543Z,4.30
2023-03-29T08:39:51.737Z,3.50
2023-03-29T08:42:24.673Z,3.35
2023-03-29T08:44:57.507Z,3.95
2023-03-29T08:47:45.914Z,3.50
2023-03-29T08:50:13.980Z,3.67
2023-03-29T08:52:55.841Z,3.75
2023-03-29T08:55:31.939Z,3.30
2023-03-29T08:58:01.484Z,3.33
2023-03-29T09:00:44.445Z,4.07
2023-03-29T09:03:19.831Z,3.45
2023-03-29T09:06:08.128Z,3.78
2023-03-29T09:08:43.713Z,3.42
2023-03-29T09:11:38.234Z,3.70
2023-03-29T09:14:23.748Z,3.58
2023-03-29T09:17:02.712Z,3.53
2023-03-29T09:19:41.893Z,3.90
2023-03-29T09:22:28.128Z,3.42
2023-03-29T09:25:00.841Z,3.17
2023-03-29T09:27:34.316Z,3.47
2023-03-29T09:30:26.097Z,3.25
2023-03-29T09:32:56.660Z,3.25
2023-03-29T09:35:29.044Z,3.45
2023-03-29T09:37:56.958Z,3.67
2023-03-29T09:40:39.794Z,3.72
2023-03-29T09:43:11.052Z,3.20
2023-03-29T09:45:38.890Z,3.72
2023-03-29T09:48:15.006Z,3.20
2023-03-29T09:50:46.096Z,3.33
2023-03-29T09:53:15.848Z,3.42
2023-03-29T09:55:44.795Z,3.28
2023-03-29T09:58:16.199Z,3.50
2023-03-29T10:00:43.206Z,3.53
2023-03-29T10:03:10.928Z,3.50
2023-03-29T10:05:38.155Z,3.30
2023-03-29T10:08:19.655Z,3.25
2023-03-29T10:10:47.336Z,3.25
2023-03-29T10:13:22.925Z,3.33
2023-03-29T10:16:07.508Z,4.35
2023-03-29T10:18:40.706Z,4.07
2023-03-29T10:21:11.673Z,3.78
2023-03-29T10:23:38.469Z,3.72
2023-03-29T10:26:11.668Z,3.58
2023-03-29T10:28:38.838Z,3.53
2023-03-29T10:31:08.300Z,4.10
2023-03-29T10:33:36.389Z,3.78
2023-03-29T10:36:06.684Z,4.10
2023-03-29T10:38:36.440Z,4.20
2023-03-29T10:41:10.294Z,4.18
2023-03-29T10:43:42.886Z,3.72
2023-03-29T10:46:31.871Z,3.72
2023-03-29T10:49:06.054Z,3.55
2023-03-29T10:51:34.475Z,3.88
2023-03-29T10:54:02.511Z,3.90
2023-03-29T10:56:39.252Z,4.10
2023-03-29T10:59:30.186Z,4.35
2023-03-29T11:02:15.392Z,3.97
2023-03-29T11:05:07.311Z,3.85
2023-03-29T11:07:56.297Z,4.13
2023-03-29T11:10:40.848Z,3.47
2023-03-29T11:13:16.699Z,2.40
2023-03-29T11:15:55.916Z,3.13
2023-03-29T11:19:13.760Z,2.30
2023-03-29T11:21:46.254Z,2.78
2023-03-29T11:24:58.286Z,2.80
2023-03-29T11:28:02.598Z,2.92
2023-03-29T11:30:38.324Z,2.97
2023-03-29T11:33:43.127Z,2.47
2023-03-29T11:36:20.947Z,2.83
2023-03-29T11:39:17.338Z,3.00
2023-03-29T11:41:48.318Z,3.30
2023-03-29T11:44:24.069Z,2.75
2023-03-29T11:47:00.428Z,2.78
2023-03-29T11:49:34.359Z,2.70
2023-03-29T11:52:07.515Z,2.95
2023-03-29T11:54:41.006Z,2.63
2023-03-29T11:57:33.023Z,2.80
2023-03-29T12:00:12.472Z,2.42
2023-03-29T12:02:52.000Z,2.72
2023-03-29T12:05:23.399Z,2.17
2023-03-29T12:08:18.962Z,2.65
2023-03-29T12:10:53.177Z,2.30
2023-03-29T12:13:33.537Z,2.78
2023-03-29T12:16:08.843Z,2.47
2023-03-29T12:18:41.477Z,2.72
2023-03-29T12:21:20.082Z,2.30
2023-03-29T12:23:48.084Z,1.90
2023-03-29T12:26:46.208Z,2.20
2023-03-29T12:29:32.998Z,2.20
2023-03-29T12:32:12.769Z,2.72
2023-03-29T12:34:45.673Z,2.55
2023-03-29T12:37:32.061Z,2.10
2023-03-29T12:40:13.187Z,2.85
2023-03-29T12:42:52.845Z,2.20
2023-03-29T12:45:34.974Z,2.80
2023-03-29T12:48:02.015Z,2.42
2023-03-29T12:50:36.906Z,2.35
2023-03-29T12:53:30.845Z,2.30
2023-03-29T12:56:00.603Z,2.35
2023-03-29T12:58:37.163Z,2.33
2023-03-29T13:01:07.224Z,2.22
2023-03-29T13:03:40.385Z,2.88
2023-03-29T13:06:10.454Z,2.10
2023-03-29T13:08:43.273Z,2.33
2023-03-29T13:11:27.505Z,2.35
2023-03-29T13:16:34.189Z,2.40
2023-03-29T13:19:40.088Z,2.17
2023-03-29T13:22:40.455Z,2.88
2023-03-29T13:25:41.959Z,2.58
2023-03-29T13:28:27.013Z,2.47
2023-03-29T13:31:11.290Z,3.22
2023-03-29T13:34:06.976Z,2.90
2023-03-29T13:37:02.471Z,2.63
2023-03-29T13:39:32.201Z,3.92
2023-03-29T13:42:27.033Z,2.78
2023-03-29T13:45:10.422Z,2.70
2023-03-29T13:47:51.822Z,2.38
2023-03-29T13:50:40.359Z,2.28
2023-03-29T13:53:19.750Z,2.55
2023-03-29T13:55:51.057Z,2.63
2023-03-29T13:58:30.619Z,2.88
2023-03-29T14:01:18.744Z,2.30
2023-03-29T14:03:48.691Z,2.28
2023-03-29T14:06:21.345Z,2.42
2023-03-29T14:08:49.565Z,2.75
2023-03-29T14:11:26.642Z,3.17
2023-03-29T14:13:55.528Z,2.92
2023-03-29T14:16:23.260Z,2.60
2023-03-29T14:18:52.224Z,3.25
2023-03-29T14:21:21.203Z,2.90
2023-03-29T14:23:55.207Z,3.58
2023-03-29T14:26:24.073Z,2.92
2023-03-29T14:28:53.069Z,2.67
2023-03-29T14:31:35.181Z,2.90
2023-03-29T14:34:04.547Z,3.20
2023-03-29T14:36:33.559Z,3.10
2023-03-29T14:39:04.130Z,2.70
2023-03-29T14:41:35.573Z,3.80
2023-03-29T14:44:04.630Z,3.22
2023-03-29T14:46:33.882Z,2.88
2023-03-29T14:49:02.310Z,2.95
2023-03-29T14:51:31.208Z,3.50
2023-03-29T14:54:00.201Z,3.55
2023-03-29T14:56:27.651Z,3.33
2023-03-29T14:58:56.576Z,3.67
2023-03-29T15:01:26.208Z,3.30
2023-03-29T15:04:08.570Z,3.08
2023-03-29T15:06:41.693Z,3.63
2023-03-29T15:09:17.226Z,3.55
2023-03-29T15:11:51.856Z,4.00
2023-03-29T15:14:20.228Z,4.03
2023-03-29T15:16:49.676Z,4.00
2023-03-29T15:19:20.459Z,3.75
2023-03-29T15:21:49.986Z,4.03
2023-03-29T15:24:32.656Z,3.70
2023-03-29T15:27:19.762Z,3.80
2023-03-29T15:29:47.348Z,3.75
2023-03-29T15:32:25.629Z,3.80
2023-03-29T15:35:00.175Z,3.90
2023-03-29T15:37:27.791Z,3.90
2023-03-29T15:39:54.805Z,3.88
2023-03-29T15:42:21.561Z,3.90
2023-03-29T15:44:48.327Z,3.60
2023-03-29T15:47:15.224Z,3.95
2023-03-29T15:49:42.260Z,4.25
2023-03-29T15:52:09.037Z,4.40
2023-03-29T15:54:37.133Z,4.07
2023-03-29T15:57:07.390Z,4.32
2023-03-29T15:59:36.565Z,4.90
2023-03-29T16:02:04.399Z,4.25
2023-03-29T16:04:31.282Z,4.78
2023-03-29T16:06:58.089Z,4.32
2023-03-29T16:09:25.728Z,5.18
2023-03-29T16:11:52.587Z,5.10
2023-03-29T16:14:25.216Z,4.97
2023-03-29T16:16:53.035Z,4.65
2023-03-29T16:19:20.511Z,4.50
2023-03-29T16:21:48.172Z,5.25
2023-03-29T16:24:21.197Z,5.25
2023-03-29T16:26:49.112Z,5.40
2023-03-29T16:29:17.374Z,4.93
2023-03-29T16:31:45.785Z,5.38
2023-03-29T16:34:13.746Z,5.32
2023-03-29T16:36:41.134Z,5.18
2023-03-29T16:39:07.985Z,5.78
2023-03-29T16:41:34.813Z,5.38
2023-03-29T16:44:01.762Z,5.75
2023-03-29T16:46:29.532Z,4.72
2023-03-29T16:48:57.946Z,5.32
2023-03-29T16:51:25.766Z,5.18
2023-03-29T16:53:52.513Z,5.25
2023-03-29T16:56:19.900Z,4.90
2023-03-29T16:58:47.204Z,5.60
2023-03-29T17:01:16.936Z,5.15
2023-03-29T17:03:44.041Z,5.93
2023-03-29T17:06:11.903Z,4.70
2023-03-29T17:08:39.515Z,5.13
2023-03-29T17:11:09.722Z,5.30
2023-03-29T17:13:37.454Z,5.25
2023-03-29T17:16:05.167Z,5.43
2023-03-29T17:18:32.285Z,5.13
2023-03-29T17:20:59.650Z,5.32
2023-03-29T17:23:26.723Z,5.15
2023-03-29T17:25:57.097Z,5.43
2023-03-29T17:28:24.468Z,4.38
2023-03-29T17:30:51.500Z,6.28
2023-03-29T17:33:22.813Z,6.38
2023-03-29T17:35:49.718Z,5.03
2023-03-29T17:38:16.618Z,5.85
2023-03-29T17:40:43.465Z,5.65
2023-03-29T17:43:10.286Z,5.43
2023-03-29T17:45:37.089Z,5.63
2023-03-29T17:48:06.178Z,6.13
2023-03-29T17:50:33.782Z,5.88
2023-03-29T17:53:00.636Z,5.28
2023-03-29T17:55:27.427Z,5.70
2023-03-29T17:57:54.386Z,6.22
2023-03-29T18:00:21.549Z,5.93
2023-03-29T18:02:48.455Z,6.00
2023-03-29T18:05:15.458Z,6.13
2023-03-29T18:07:42.361Z,6.35
2023-03-29T18:10:09.600Z,6.20
2023-03-29T18:12:36.655Z,5.50
2023-03-29T18:15:04.140Z,6.03
2023-03-29T18:17:31.559Z,6.50
2023-03-29T18:19:58.319Z,6.00
2023-03-29T18:22:25.420Z,6.20
2023-03-29T18:24:52.232Z,5.63
2023-03-29T18:27:19.801Z,6.05
2023-03-29T18:29:46.684Z,6.18
2023-03-29T18:32:13.845Z,5.80
2023-03-29T18:34:40.682Z,6.18
2023-03-29T18:37:13.463Z,6.45
2023-03-29T18:39:41.307Z,6.10
2023-03-29T18:42:10.208Z,6.13
2023-03-29T18:44:40.145Z,6.47
2023-03-29T18:47:07.342Z,6.43
2023-03-29T18:49:34.365Z,6.65
2023-03-29T18:52:02.055Z,6.72
2023-03-29T18:54:28.826Z,6.18
2023-03-29T18:56:57.837Z,7.13
2023-03-29T18:59:26.015Z,6.90
2023-03-29T19:01:52.970Z,6.88
2023-03-29T19:04:20.064Z,7.53
2023-03-29T19:06:47.508Z,6.57
2023-03-29T19:09:14.344Z,7.32
2023-03-29T19:11:41.458Z,7.30
2023-03-29T19:14:09.167Z,7.13
2023-03-29T19:16:36.255Z,7.57
2023-03-29T19:19:04.938Z,7.38
2023-03-29T19:21:32.350Z,6.93
2023-03-29T19:24:00.901Z,7.05
2023-03-29T19:26:33.134Z,7.13
2023-03-29T19:29:01.072Z,8.25
2023-03-29T19:31:28.405Z,6.78
2023-03-29T19:33:55.337Z,6.82
2023-03-29T19:36:22.540Z,6.40
2023-03-29T19:38:49.317Z,7.15
2023-03-29T19:41:16.338Z,6.63
2023-03-29T19:43:43.537Z,5.93
2023-03-29T19:46:12.108Z,6.13
2023-03-29T19:48:39.461Z,6.65
2023-03-29T19:51:06.733Z,6.50
2023-03-29T19:53:38.185Z,6.30
2023-03-29T19:56:07.625Z,6.72
2023-03-29T19:58:34.568Z,7.20
2023-03-29T20:01:01.558Z,6.68
2023-03-29T20:03:28.514Z,7.03
2023-03-29T20:05:56.572Z,7.00
2023-03-29T20:08:24.799Z,7.03
2023-03-29T20:11:03.820Z,7.10
2023-03-29T20:13:38.304Z,6.75
2023-03-29T20:16:15.366Z,7.18
2023-03-29T20:18:44.754Z,6.85
2023-03-29T20:21:18.477Z,6.63
2023-03-29T20:23:45.498Z,7.07
2023-03-29T20:26:12.356Z,7.28
2023-03-29T20:28:39.287Z,7.05
2023-03-29T20:31:07.835Z,7.22
2023-03-29T20:33:34.778Z,7.15
2023-03-29T20:36:01.665Z,7.40
2023-03-29T20:38:28.620Z,7.03
2023-03-29T20:40:55.479Z,7.30
2023-03-29T20:43:22.513Z,7.75
2023-03-29T20:45:53.847Z,6.95
2023-03-29T20:48:23.430Z,7.60
2023-03-29T20:50:51.328Z,7.28
2023-03-29T20:53:20.330Z,7.00
2023-03-29T20:55:47.898Z,7.38
2023-03-29T20:58:15.735Z,7.53
2023-03-29T21:00:43.548Z,7.40
2023-03-29T21:03:10.853Z,6.85
2023-03-29T21:05:38.750Z,6.90
2023-03-29T21:08:05.700Z,7.13
2023-03-29T21:10:32.793Z,7.22
2023-03-29T21:13:00.228Z,7.18
2023-03-29T21:15:29.431Z,6.95
2023-03-29T21:17:56.443Z,7.30
2023-03-29T21:20:24.215Z,7.47
2023-03-29T21:22:51.603Z,7.95
2023-03-29T21:25:18.903Z,7.07
2023-03-29T21:27:46.098Z,7.88
2023-03-29T21:30:13.067Z,7.30
2023-03-29T21:32:40.430Z,7.88
2023-03-29T21:35:08.044Z,7.32
2023-03-29T21:37:35.195Z,7.15
2023-03-29T21:40:05.693Z,6.95
2023-03-29T21:42:36.221Z,7.50
2023-03-29T21:45:03.136Z,7.60
2023-03-29T21:47:30.415Z,7.45
2023-03-29T21:49:57.287Z,7.18
2023-03-29T21:52:24.200Z,7.05
2023-03-29T21:54:50.960Z,6.70
2023-03-29T21:57:17.810Z,7.05
2023-03-29T21:59:44.840Z,7.25
2023-03-29T22:02:11.923Z,7.50
2023-03-29T22:04:38.750Z,7.35
2023-03-29T22:07:06.488Z,6.78
2023-03-29T22:09:35.236Z,7.25
2023-03-29T22:12:03.482Z,7.05
2023-03-29T22:14:35.171Z,7.22
2023-03-29T22:17:05.926Z,7.10
2023-03-29T22:19:39.738Z,7.28
2023-03-29T22:22:13.509Z,7.90
2023-03-29T22:24:41.612Z,6.15
2023-03-29T22:27:08.508Z,6.30
2023-03-29T22:29:35.444Z,6.40
2023-03-29T22:32:02.468Z,7.07
2023-03-29T22:34:29.976Z,7.10
2023-03-29T22:36:56.787Z,6.53
2023-03-29T22:39:23.602Z,6.60
2023-03-29T22:41:50.852Z,6.80
2023-03-29T22:44:17.551Z,7.13
2023-03-29T22:46:44.364Z,6.72
2023-03-29T22:49:11.808Z,7.47
2023-03-29T22:51:38.963Z,6.88
2023-03-29T22:54:05.992Z,7.63
2023-03-29T22:56:32.853Z,7.43
2023-03-29T22:58:59.675Z,7.88
2023-03-29T23:01:26.611Z,8.07
2023-03-29T23:03:53.381Z,9.02
2023-03-29T23:06:20.412Z,8.13
2023-03-29T23:08:47.158Z,8.35
2023-03-29T23:11:13.974Z,7.63
2023-03-29T23:13:40.935Z,7.97
2023-03-29T23:16:08.244Z,7.85
2023-03-29T23:18:37.290Z,7.68
2023-03-29T23:21:05.870Z,7.60
2023-03-29T23:23:33.497Z,7.15
2023-03-29T23:26:01.171Z,8.57
2023-03-29T23:28:30.370Z,8.77
2023-03-29T23:31:07.165Z,8.68
2023-03-29T23:33:36.105Z,9.00
2023-03-29T23:36:05.223Z,8.45
2023-03-29T23:38:34.219Z,7.60
2023-03-29T23:41:03.433Z,7.88
2023-03-29T23:43:35.472Z,7.82
2023-03-29T23:48:31.975Z,7.72
2023-03-29T23:50:58.744Z,7.35
2023-03-29T23:53:28.734Z,7.93
2023-03-29T23:56:05.840Z,7.90
2023-03-29T23:58:35.487Z,7.80
